sensor_id;sensor_type;location;lat;lon;timestamp;P1;durP1;ratioP1;P2;durP2;ratioP2
19869;SDS011;10097;50.862;4.696;2022-12-11T00:01:11;30.47;;;11.97;;
19869;SDS011;10097;50.862;4.696;2022-12-11T00:03:38;27.30;;;10.23;;
19869;SDS011;10097;50.862;4.696;2022-12-11T00:06:08;23.40;;;10.00;;
19869;SDS011;10097;50.862;4.696;2022-12-11T00:08:35;22.13;;;10.10;;
19869;SDS011;10097;50.862;4.696;2022-12-11T00:11:02;24.37;;;9.83;;
19869;SDS011;10097;50.862;4.696;2022-12-11T00:13:27;21.47;;;9.53;;
19869;SDS011;10097;50.862;4.696;2022-12-11T00:15:53;24.77;;;9.97;;
19869;SDS011;10097;50.862;4.696;2022-12-11T00:18:19;22.30;;;10.00;;
19869;SDS011;10097;50.862;4.696;2022-12-11T00:20:45;24.63;;;10.13;;
19869;SDS011;10097;50.862;4.696;2022-12-11T00:23:11;26.33;;;11.13;;
19869;SDS011;10097;50.862;4.696;2022-12-11T00:25:40;23.23;;;10.13;;
19869;SDS011;10097;50.862;4.696;2022-12-11T00:28:14;24.93;;;10.73;;
19869;SDS011;10097;50.862;4.696;2022-12-11T00:30:44;25.87;;;10.30;;
19869;SDS011;10097;50.862;4.696;2022-12-11T00:33:10;23.93;;;10.13;;
19869;SDS011;10097;50.862;4.696;2022-12-11T00:35:40;26.67;;;10.17;;
19869;SDS011;10097;50.862;4.696;2022-12-11T00:38:08;24.30;;;9.80;;
19869;SDS011;10097;50.862;4.696;2022-12-11T00:40:37;21.30;;;8.80;;
19869;SDS011;10097;50.862;4.696;2022-12-11T00:43:03;25.73;;;10.23;;
19869;SDS011;10097;50.862;4.696;2022-12-11T00:45:29;23.57;;;10.53;;
19869;SDS011;10097;50.862;4.696;2022-12-11T00:47:55;24.73;;;11.13;;
19869;SDS011;10097;50.862;4.696;2022-12-11T00:50:20;24.13;;;10.90;;
19869;SDS011;10097;50.862;4.696;2022-12-11T00:52:46;23.70;;;10.17;;
19869;SDS011;10097;50.862;4.696;2022-12-11T00:55:11;24.33;;;10.53;;
19869;SDS011;10097;50.862;4.696;2022-12-11T00:57:37;23.50;;;10.93;;
19869;SDS011;10097;50.862;4.696;2022-12-11T01:00:06;28.23;;;11.50;;
19869;SDS011;10097;50.862;4.696;2022-12-11T01:02:32;25.53;;;10.73;;
19869;SDS011;10097;50.862;4.696;2022-12-11T01:04:58;30.40;;;10.97;;
19869;SDS011;10097;50.862;4.696;2022-12-11T01:07:24;24.07;;;9.53;;
19869;SDS011;10097;50.862;4.696;2022-12-11T01:09:50;26.50;;;10.83;;
19869;SDS011;10097;50.862;4.696;2022-12-11T01:12:34;26.20;;;11.07;;
19869;SDS011;10097;50.862;4.696;2022-12-11T01:14:59;25.83;;;11.37;;
19869;SDS011;10097;50.862;4.696;2022-12-11T01:17:25;24.10;;;10.73;;
19869;SDS011;10097;50.862;4.696;2022-12-11T01:19:52;29.37;;;11.77;;
19869;SDS011;10097;50.862;4.696;2022-12-11T01:22:18;27.37;;;11.27;;
19869;SDS011;10097;50.862;4.696;2022-12-11T01:24:43;25.60;;;11.27;;
19869;SDS011;10097;50.862;4.696;2022-12-11T01:27:09;30.47;;;11.43;;
19869;SDS011;10097;50.862;4.696;2022-12-11T01:29:35;27.23;;;11.63;;
19869;SDS011;10097;50.862;4.696;2022-12-11T01:32:00;28.40;;;12.13;;
19869;SDS011;10097;50.862;4.696;2022-12-11T01:34:30;25.43;;;11.30;;
19869;SDS011;10097;50.862;4.696;2022-12-11T01:36:56;31.30;;;12.60;;
19869;SDS011;10097;50.862;4.696;2022-12-11T01:39:22;28.87;;;12.30;;
19869;SDS011;10097;50.862;4.696;2022-12-11T01:41:47;27.90;;;11.27;;
19869;SDS011;10097;50.862;4.696;2022-12-11T01:46:39;28.03;;;11.97;;
19869;SDS011;10097;50.862;4.696;2022-12-11T01:49:06;29.20;;;11.80;;
19869;SDS011;10097;50.862;4.696;2022-12-11T01:51:55;32.23;;;12.57;;
19869;SDS011;10097;50.862;4.696;2022-12-11T01:54:23;30.30;;;12.50;;
19869;SDS011;10097;50.862;4.696;2022-12-11T01:56:52;32.43;;;12.90;;
19869;SDS011;10097;50.862;4.696;2022-12-11T01:59:22;29.17;;;11.33;;
19869;SDS011;10097;50.862;4.696;2022-12-11T02:04:34;27.07;;;12.37;;
19869;SDS011;10097;50.862;4.696;2022-12-11T02:07:02;26.13;;;11.20;;
19869;SDS011;10097;50.862;4.696;2022-12-11T02:09:29;30.27;;;12.70;;
19869;SDS011;10097;50.862;4.696;2022-12-11T02:17:33;33.33;;;12.03;;
19869;SDS011;10097;50.862;4.696;2022-12-11T02:25:40;25.43;;;10.93;;
19869;SDS011;10097;50.862;4.696;2022-12-11T02:30:56;29.67;;;11.63;;
19869;SDS011;10097;50.862;4.696;2022-12-11T02:33:32;25.20;;;11.23;;
19869;SDS011;10097;50.862;4.696;2022-12-11T02:36:02;28.67;;;12.07;;
19869;SDS011;10097;50.862;4.696;2022-12-11T02:38:31;29.00;;;11.67;;
19869;SDS011;10097;50.862;4.696;2022-12-11T02:41:00;26.13;;;11.27;;
19869;SDS011;10097;50.862;4.696;2022-12-11T02:43:28;27.03;;;11.37;;
19869;SDS011;10097;50.862;4.696;2022-12-11T02:45:56;30.07;;;11.00;;
19869;SDS011;10097;50.862;4.696;2022-12-11T02:48:23;30.00;;;12.10;;
19869;SDS011;10097;50.862;4.696;2022-12-11T02:50:50;35.67;;;12.77;;
19869;SDS011;10097;50.862;4.696;2022-12-11T02:53:20;27.43;;;12.10;;
19869;SDS011;10097;50.862;4.696;2022-12-11T02:55:50;28.37;;;11.90;;
19869;SDS011;10097;50.862;4.696;2022-12-11T02:58:21;28.53;;;11.47;;
19869;SDS011;10097;50.862;4.696;2022-12-11T03:00:50;30.17;;;11.37;;
19869;SDS011;10097;50.862;4.696;2022-12-11T03:03:16;26.83;;;10.83;;
19869;SDS011;10097;50.862;4.696;2022-12-11T03:05:42;26.47;;;11.00;;
19869;SDS011;10097;50.862;4.696;2022-12-11T03:08:10;26.97;;;11.77;;
19869;SDS011;10097;50.862;4.696;2022-12-11T03:10:36;27.30;;;11.67;;
19869;SDS011;10097;50.862;4.696;2022-12-11T03:13:02;31.20;;;11.93;;
19869;SDS011;10097;50.862;4.696;2022-12-11T03:15:40;34.70;;;12.07;;
19869;SDS011;10097;50.862;4.696;2022-12-11T03:18:17;28.53;;;10.77;;
19869;SDS011;10097;50.862;4.696;2022-12-11T03:21:03;32.23;;;12.00;;
19869;SDS011;10097;50.862;4.696;2022-12-11T03:26:21;29.93;;;11.70;;
19869;SDS011;10097;50.862;4.696;2022-12-11T03:28:48;29.87;;;12.03;;
19869;SDS011;10097;50.862;4.696;2022-12-11T03:31:30;39.80;;;12.67;;
19869;SDS011;10097;50.862;4.696;2022-12-11T03:34:09;30.67;;;12.23;;
19869;SDS011;10097;50.862;4.696;2022-12-11T03:36:42;29.60;;;13.03;;
19869;SDS011;10097;50.862;4.696;2022-12-11T03:39:14;27.97;;;11.87;;
19869;SDS011;10097;50.862;4.696;2022-12-11T03:41:45;27.33;;;11.27;;
19869;SDS011;10097;50.862;4.696;2022-12-11T03:44:12;30.93;;;13.03;;
19869;SDS011;10097;50.862;4.696;2022-12-11T03:46:39;27.90;;;12.13;;
19869;SDS011;10097;50.862;4.696;2022-12-11T03:49:15;27.23;;;11.90;;
19869;SDS011;10097;50.862;4.696;2022-12-11T03:51:44;29.40;;;12.50;;
19869;SDS011;10097;50.862;4.696;2022-12-11T03:54:11;23.17;;;10.33;;
19869;SDS011;10097;50.862;4.696;2022-12-11T03:56:38;28.47;;;11.33;;
19869;SDS011;10097;50.862;4.696;2022-12-11T03:59:07;35.37;;;12.93;;
19869;SDS011;10097;50.862;4.696;2022-12-11T04:01:32;25.57;;;11.27;;
19869;SDS011;10097;50.862;4.696;2022-12-11T04:03:58;31.13;;;11.97;;
19869;SDS011;10097;50.862;4.696;2022-12-11T04:06:24;27.87;;;11.23;;
19869;SDS011;10097;50.862;4.696;2022-12-11T04:08:50;32.83;;;11.53;;
19869;SDS011;10097;50.862;4.696;2022-12-11T04:11:15;26.13;;;10.60;;
19869;SDS011;10097;50.862;4.696;2022-12-11T04:14:04;29.40;;;10.60;;
19869;SDS011;10097;50.862;4.696;2022-12-11T04:16:48;22.87;;;10.90;;
19869;SDS011;10097;50.862;4.696;2022-12-11T04:19:14;27.33;;;10.80;;
19869;SDS011;10097;50.862;4.696;2022-12-11T04:21:58;28.40;;;11.07;;
19869;SDS011;10097;50.862;4.696;2022-12-11T04:24:42;25.37;;;10.97;;
19869;SDS011;10097;50.862;4.696;2022-12-11T04:27:08;29.00;;;11.20;;
19869;SDS011;10097;50.862;4.696;2022-12-11T04:29:34;24.67;;;11.27;;
19869;SDS011;10097;50.862;4.696;2022-12-11T04:31:59;27.77;;;10.40;;
19869;SDS011;10097;50.862;4.696;2022-12-11T04:34:25;25.73;;;10.60;;
19869;SDS011;10097;50.862;4.696;2022-12-11T04:36:51;24.50;;;10.17;;
19869;SDS011;10097;50.862;4.696;2022-12-11T04:39:16;24.20;;;10.53;;
19869;SDS011;10097;50.862;4.696;2022-12-11T04:41:42;28.27;;;10.93;;
19869;SDS011;10097;50.862;4.696;2022-12-11T04:44:08;31.30;;;10.67;;
19869;SDS011;10097;50.862;4.696;2022-12-11T04:46:34;29.70;;;11.43;;
19869;SDS011;10097;50.862;4.696;2022-12-11T04:49:00;30.97;;;11.10;;
19869;SDS011;10097;50.862;4.696;2022-12-11T04:51:26;28.70;;;11.97;;
19869;SDS011;10097;50.862;4.696;2022-12-11T04:53:52;29.63;;;11.30;;
19869;SDS011;10097;50.862;4.696;2022-12-11T04:56:18;27.23;;;11.20;;
19869;SDS011;10097;50.862;4.696;2022-12-11T04:58:45;29.13;;;11.03;;
19869;SDS011;10097;50.862;4.696;2022-12-11T05:01:16;35.40;;;11.27;;
19869;SDS011;10097;50.862;4.696;2022-12-11T05:03:44;31.50;;;11.33;;
19869;SDS011;10097;50.862;4.696;2022-12-11T05:06:11;29.37;;;12.10;;
19869;SDS011;10097;50.862;4.696;2022-12-11T05:08:37;27.33;;;10.43;;
19869;SDS011;10097;50.862;4.696;2022-12-11T05:11:05;36.73;;;12.43;;
19869;SDS011;10097;50.862;4.696;2022-12-11T05:13:32;31.37;;;12.27;;
19869;SDS011;10097;50.862;4.696;2022-12-11T05:15:59;34.77;;;11.70;;
19869;SDS011;10097;50.862;4.696;2022-12-11T05:18:27;32.80;;;11.43;;
19869;SDS011;10097;50.862;4.696;2022-12-11T05:20:56;33.87;;;11.30;;
19869;SDS011;10097;50.862;4.696;2022-12-11T05:23:24;34.07;;;11.87;;
19869;SDS011;10097;50.862;4.696;2022-12-11T05:25:53;34.50;;;12.27;;
19869;SDS011;10097;50.862;4.696;2022-12-11T05:28:20;29.83;;;12.07;;
19869;SDS011;10097;50.862;4.696;2022-12-11T05:30:46;30.63;;;12.20;;
19869;SDS011;10097;50.862;4.696;2022-12-11T05:33:12;29.63;;;10.80;;
19869;SDS011;10097;50.862;4.696;2022-12-11T05:35:38;30.50;;;10.97;;
19869;SDS011;10097;50.862;4.696;2022-12-11T05:38:10;31.33;;;12.67;;
19869;SDS011;10097;50.862;4.696;2022-12-11T05:40:35;34.40;;;13.60;;
19869;SDS011;10097;50.862;4.696;2022-12-11T05:43:01;33.80;;;11.47;;
19869;SDS011;10097;50.862;4.696;2022-12-11T05:45:26;33.57;;;12.87;;
19869;SDS011;10097;50.862;4.696;2022-12-11T05:47:52;35.57;;;12.20;;
19869;SDS011;10097;50.862;4.696;2022-12-11T05:50:18;34.07;;;12.80;;
19869;SDS011;10097;50.862;4.696;2022-12-11T05:52:43;30.83;;;12.97;;
19869;SDS011;10097;50.862;4.696;2022-12-11T05:55:09;34.53;;;13.13;;
19869;SDS011;10097;50.862;4.696;2022-12-11T05:57:35;36.80;;;14.33;;
19869;SDS011;10097;50.862;4.696;2022-12-11T06:00:00;32.47;;;13.20;;
19869;SDS011;10097;50.862;4.696;2022-12-11T06:02:26;34.60;;;12.67;;
19869;SDS011;10097;50.862;4.696;2022-12-11T06:04:51;39.23;;;14.10;;
19869;SDS011;10097;50.862;4.696;2022-12-11T06:07:17;38.60;;;14.23;;
19869;SDS011;10097;50.862;4.696;2022-12-11T06:09:43;38.83;;;14.27;;
19869;SDS011;10097;50.862;4.696;2022-12-11T06:12:08;116.23;;;56.40;;
19869;SDS011;10097;50.862;4.696;2022-12-11T06:14:34;125.30;;;61.03;;
19869;SDS011;10097;50.862;4.696;2022-12-11T06:17:00;131.03;;;68.03;;
19869;SDS011;10097;50.862;4.696;2022-12-11T06:19:25;90.77;;;51.30;;
19869;SDS011;10097;50.862;4.696;2022-12-11T06:21:51;51.70;;;25.83;;
19869;SDS011;10097;50.862;4.696;2022-12-11T06:24:16;85.30;;;43.83;;
19869;SDS011;10097;50.862;4.696;2022-12-11T06:26:42;65.10;;;32.07;;
19869;SDS011;10097;50.862;4.696;2022-12-11T06:29:09;73.03;;;32.93;;
19869;SDS011;10097;50.862;4.696;2022-12-11T06:31:34;142.70;;;52.20;;
19869;SDS011;10097;50.862;4.696;2022-12-11T06:34:00;154.57;;;59.07;;
19869;SDS011;10097;50.862;4.696;2022-12-11T06:36:26;172.10;;;60.50;;
19869;SDS011;10097;50.862;4.696;2022-12-11T06:38:51;93.97;;;35.77;;
19869;SDS011;10097;50.862;4.696;2022-12-11T06:41:19;72.30;;;24.93;;
19869;SDS011;10097;50.862;4.696;2022-12-11T06:43:44;53.87;;;22.17;;
19869;SDS011;10097;50.862;4.696;2022-12-11T06:46:11;47.00;;;20.83;;
19869;SDS011;10097;50.862;4.696;2022-12-11T06:48:38;43.67;;;19.10;;
19869;SDS011;10097;50.862;4.696;2022-12-11T06:51:10;54.93;;;21.40;;
19869;SDS011;10097;50.862;4.696;2022-12-11T06:53:38;73.13;;;30.03;;
19869;SDS011;10097;50.862;4.696;2022-12-11T06:56:05;64.40;;;27.57;;
19869;SDS011;10097;50.862;4.696;2022-12-11T06:58:33;72.03;;;31.50;;
19869;SDS011;10097;50.862;4.696;2022-12-11T07:01:00;106.73;;;44.43;;
19869;SDS011;10097;50.862;4.696;2022-12-11T07:03:26;172.27;;;74.70;;
19869;SDS011;10097;50.862;4.696;2022-12-11T07:05:52;72.07;;;34.23;;
19869;SDS011;10097;50.862;4.696;2022-12-11T07:08:17;69.20;;;32.50;;
19869;SDS011;10097;50.862;4.696;2022-12-11T07:10:43;101.03;;;48.57;;
19869;SDS011;10097;50.862;4.696;2022-12-11T07:13:09;44.77;;;19.40;;
19869;SDS011;10097;50.862;4.696;2022-12-11T07:15:35;65.13;;;37.07;;
19869;SDS011;10097;50.862;4.696;2022-12-11T07:18:00;42.30;;;20.93;;
19869;SDS011;10097;50.862;4.696;2022-12-11T07:20:26;42.30;;;22.20;;
19869;SDS011;10097;50.862;4.696;2022-12-11T07:22:52;36.43;;;15.30;;
19869;SDS011;10097;50.862;4.696;2022-12-11T07:25:18;50.07;;;22.10;;
19869;SDS011;10097;50.862;4.696;2022-12-11T07:27:44;45.47;;;23.90;;
19869;SDS011;10097;50.862;4.696;2022-12-11T07:30:09;48.43;;;23.83;;
19869;SDS011;10097;50.862;4.696;2022-12-11T07:32:36;50.60;;;27.30;;
19869;SDS011;10097;50.862;4.696;2022-12-11T07:35:02;46.03;;;21.07;;
19869;SDS011;10097;50.862;4.696;2022-12-11T07:37:28;36.40;;;17.47;;
19869;SDS011;10097;50.862;4.696;2022-12-11T07:39:53;38.67;;;18.20;;
19869;SDS011;10097;50.862;4.696;2022-12-11T07:42:19;39.33;;;17.43;;
19869;SDS011;10097;50.862;4.696;2022-12-11T07:44:45;30.43;;;14.80;;
19869;SDS011;10097;50.862;4.696;2022-12-11T07:47:10;38.33;;;15.87;;
19869;SDS011;10097;50.862;4.696;2022-12-11T07:49:36;32.57;;;14.73;;
19869;SDS011;10097;50.862;4.696;2022-12-11T07:52:02;37.20;;;15.00;;
19869;SDS011;10097;50.862;4.696;2022-12-11T07:54:28;39.87;;;16.13;;
19869;SDS011;10097;50.862;4.696;2022-12-11T07:56:53;38.40;;;17.63;;
19869;SDS011;10097;50.862;4.696;2022-12-11T07:59:19;35.10;;;16.20;;
19869;SDS011;10097;50.862;4.696;2022-12-11T08:01:45;33.07;;;15.03;;
19869;SDS011;10097;50.862;4.696;2022-12-11T08:04:11;38.10;;;16.80;;
19869;SDS011;10097;50.862;4.696;2022-12-11T08:06:39;34.40;;;16.33;;
19869;SDS011;10097;50.862;4.696;2022-12-11T08:09:07;41.47;;;19.97;;
19869;SDS011;10097;50.862;4.696;2022-12-11T08:11:34;37.53;;;18.43;;
19869;SDS011;10097;50.862;4.696;2022-12-11T08:14:00;35.63;;;16.43;;
19869;SDS011;10097;50.862;4.696;2022-12-11T08:16:26;37.17;;;15.03;;
19869;SDS011;10097;50.862;4.696;2022-12-11T08:18:52;33.93;;;14.63;;
19869;SDS011;10097;50.862;4.696;2022-12-11T08:21:22;34.20;;;15.60;;
19869;SDS011;10097;50.862;4.696;2022-12-11T08:23:50;35.00;;;14.73;;
19869;SDS011;10097;50.862;4.696;2022-12-11T08:26:18;33.73;;;14.20;;
19869;SDS011;10097;50.862;4.696;2022-12-11T08:28:51;39.00;;;15.33;;
19869;SDS011;10097;50.862;4.696;2022-12-11T08:31:17;75.27;;;30.50;;
19869;SDS011;10097;50.862;4.696;2022-12-11T08:33:43;54.27;;;22.37;;
19869;SDS011;10097;50.862;4.696;2022-12-11T08:36:10;46.03;;;19.17;;
19869;SDS011;10097;50.862;4.696;2022-12-11T08:38:38;59.17;;;24.17;;
19869;SDS011;10097;50.862;4.696;2022-12-11T08:41:10;49.00;;;20.47;;
19869;SDS011;10097;50.862;4.696;2022-12-11T08:43:37;40.67;;;18.03;;
19869;SDS011;10097;50.862;4.696;2022-12-11T08:46:04;34.57;;;15.93;;
19869;SDS011;10097;50.862;4.696;2022-12-11T08:48:31;34.53;;;15.47;;
19869;SDS011;10097;50.862;4.696;2022-12-11T08:50:58;40.40;;;17.20;;
19869;SDS011;10097;50.862;4.696;2022-12-11T08:53:25;38.60;;;18.50;;
19869;SDS011;10097;50.862;4.696;2022-12-11T08:55:52;41.50;;;17.37;;
19869;SDS011;10097;50.862;4.696;2022-12-11T08:58:18;46.00;;;24.33;;
19869;SDS011;10097;50.862;4.696;2022-12-11T09:00:43;35.43;;;17.87;;
19869;SDS011;10097;50.862;4.696;2022-12-11T09:03:09;42.63;;;20.57;;
19869;SDS011;10097;50.862;4.696;2022-12-11T09:05:36;35.37;;;14.20;;
19869;SDS011;10097;50.862;4.696;2022-12-11T09:08:02;35.87;;;15.50;;
19869;SDS011;10097;50.862;4.696;2022-12-11T09:10:28;49.50;;;21.97;;
19869;SDS011;10097;50.862;4.696;2022-12-11T09:12:53;33.40;;;16.07;;
19869;SDS011;10097;50.862;4.696;2022-12-11T09:15:19;37.57;;;16.33;;
19869;SDS011;10097;50.862;4.696;2022-12-11T09:17:44;45.80;;;19.60;;
19869;SDS011;10097;50.862;4.696;2022-12-11T09:20:10;71.83;;;34.13;;
19869;SDS011;10097;50.862;4.696;2022-12-11T09:22:36;57.53;;;26.17;;
19869;SDS011;10097;50.862;4.696;2022-12-11T09:25:01;42.13;;;19.40;;
19869;SDS011;10097;50.862;4.696;2022-12-11T09:27:27;36.83;;;17.63;;
19869;SDS011;10097;50.862;4.696;2022-12-11T09:29:53;33.40;;;14.70;;
19869;SDS011;10097;50.862;4.696;2022-12-11T09:32:19;39.83;;;18.77;;
19869;SDS011;10097;50.862;4.696;2022-12-11T09:34:44;40.17;;;18.77;;
19869;SDS011;10097;50.862;4.696;2022-12-11T09:37:10;38.23;;;15.27;;
19869;SDS011;10097;50.862;4.696;2022-12-11T09:39:36;33.30;;;16.83;;
19869;SDS011;10097;50.862;4.696;2022-12-11T09:42:11;34.43;;;15.27;;
19869;SDS011;10097;50.862;4.696;2022-12-11T09:44:51;38.77;;;18.93;;
19869;SDS011;10097;50.862;4.696;2022-12-11T09:47:37;35.13;;;16.27;;
19869;SDS011;10097;50.862;4.696;2022-12-11T09:52:43;42.67;;;19.30;;
19869;SDS011;10097;50.862;4.696;2022-12-11T09:55:22;34.53;;;15.97;;
19869;SDS011;10097;50.862;4.696;2022-12-11T10:01:12;34.07;;;15.90;;
19869;SDS011;10097;50.862;4.696;2022-12-11T10:14:09;28.30;;;13.57;;
19869;SDS011;10097;50.862;4.696;2022-12-11T10:16:45;33.90;;;17.03;;
19869;SDS011;10097;50.862;4.696;2022-12-11T10:19:18;31.37;;;15.07;;
19869;SDS011;10097;50.862;4.696;2022-12-11T10:21:48;39.03;;;17.87;;
19869;SDS011;10097;50.862;4.696;2022-12-11T10:26:44;31.87;;;13.80;;
19869;SDS011;10097;50.862;4.696;2022-12-11T10:29:12;35.07;;;15.53;;
19869;SDS011;10097;50.862;4.696;2022-12-11T10:34:10;29.60;;;12.80;;
19869;SDS011;10097;50.862;4.696;2022-12-11T10:36:39;33.47;;;14.60;;
19869;SDS011;10097;50.862;4.696;2022-12-11T10:39:13;27.43;;;10.83;;
19869;SDS011;10097;50.862;4.696;2022-12-11T10:41:42;28.13;;;12.00;;
19869;SDS011;10097;50.862;4.696;2022-12-11T10:44:16;33.93;;;14.63;;
19869;SDS011;10097;50.862;4.696;2022-12-11T10:46:59;25.90;;;10.57;;
19869;SDS011;10097;50.862;4.696;2022-12-11T10:49:36;27.10;;;10.53;;
19869;SDS011;10097;50.862;4.696;2022-12-11T10:55:19;24.83;;;9.80;;
19869;SDS011;10097;50.862;4.696;2022-12-11T10:58:12;33.80;;;15.27;;
19869;SDS011;10097;50.862;4.696;2022-12-11T11:00:43;29.33;;;13.47;;
19869;SDS011;10097;50.862;4.696;2022-12-11T11:03:20;105.33;;;52.77;;
19869;SDS011;10097;50.862;4.696;2022-12-11T11:08:51;39.40;;;21.73;;
19869;SDS011;10097;50.862;4.696;2022-12-11T11:13:46;40.03;;;21.13;;
19869;SDS011;10097;50.862;4.696;2022-12-11T11:16:14;92.70;;;54.10;;
19869;SDS011;10097;50.862;4.696;2022-12-11T11:18:47;35.70;;;19.00;;
19869;SDS011;10097;50.862;4.696;2022-12-11T11:21:18;28.93;;;13.47;;
19869;SDS011;10097;50.862;4.696;2022-12-11T11:23:46;40.77;;;20.47;;
19869;SDS011;10097;50.862;4.696;2022-12-11T11:26:11;28.40;;;13.27;;
19869;SDS011;10097;50.862;4.696;2022-12-11T11:28:47;25.73;;;10.97;;
19869;SDS011;10097;50.862;4.696;2022-12-11T11:31:30;32.57;;;14.33;;
19869;SDS011;10097;50.862;4.696;2022-12-11T11:34:02;24.27;;;10.90;;
19869;SDS011;10097;50.862;4.696;2022-12-11T11:36:32;23.47;;;10.17;;
19869;SDS011;10097;50.862;4.696;2022-12-11T11:39:05;22.20;;;9.10;;
19869;SDS011;10097;50.862;4.696;2022-12-11T11:41:57;27.23;;;12.10;;
19869;SDS011;10097;50.862;4.696;2022-12-11T11:44:38;31.17;;;16.23;;
19869;SDS011;10097;50.862;4.696;2022-12-11T11:47:13;38.07;;;18.20;;
19869;SDS011;10097;50.862;4.696;2022-12-11T11:52:59;29.83;;;12.87;;
19869;SDS011;10097;50.862;4.696;2022-12-11T11:55:37;26.30;;;11.53;;
19869;SDS011;10097;50.862;4.696;2022-12-11T11:58:21;33.40;;;15.70;;
19869;SDS011;10097;50.862;4.696;2022-12-11T12:01:00;36.47;;;21.13;;
19869;SDS011;10097;50.862;4.696;2022-12-11T12:03:26;25.47;;;11.07;;
19869;SDS011;10097;50.862;4.696;2022-12-11T12:06:01;27.47;;;11.10;;
19869;SDS011;10097;50.862;4.696;2022-12-11T12:08:46;29.57;;;11.60;;
19869;SDS011;10097;50.862;4.696;2022-12-11T12:11:36;24.00;;;9.57;;
19869;SDS011;10097;50.862;4.696;2022-12-11T12:16:39;25.23;;;12.27;;
19869;SDS011;10097;50.862;4.696;2022-12-11T12:19:29;24.60;;;10.67;;
19869;SDS011;10097;50.862;4.696;2022-12-11T12:25:09;25.10;;;10.57;;
19869;SDS011;10097;50.862;4.696;2022-12-11T12:36:41;26.10;;;11.37;;
19869;SDS011;10097;50.862;4.696;2022-12-11T12:44:25;22.30;;;10.23;;
19869;SDS011;10097;50.862;4.696;2022-12-11T12:49:51;29.43;;;12.73;;
19869;SDS011;10097;50.862;4.696;2022-12-11T12:52:20;25.23;;;10.40;;
19869;SDS011;10097;50.862;4.696;2022-12-11T12:54:47;26.70;;;10.27;;
19869;SDS011;10097;50.862;4.696;2022-12-11T12:57:34;29.47;;;12.80;;
19869;SDS011;10097;50.862;4.696;2022-12-11T13:00:03;33.80;;;14.83;;
19869;SDS011;10097;50.862;4.696;2022-12-11T13:02:37;34.07;;;15.33;;
19869;SDS011;10097;50.862;4.696;2022-12-11T13:05:24;41.10;;;18.93;;
19869;SDS011;10097;50.862;4.696;2022-12-11T13:07:53;33.60;;;16.10;;
19869;SDS011;10097;50.862;4.696;2022-12-11T13:10:26;32.73;;;13.63;;
19869;SDS011;10097;50.862;4.696;2022-12-11T13:12:59;34.73;;;14.63;;
19869;SDS011;10097;50.862;4.696;2022-12-11T13:18:01;34.40;;;15.47;;
19869;SDS011;10097;50.862;4.696;2022-12-11T13:20:30;37.80;;;16.13;;
19869;SDS011;10097;50.862;4.696;2022-12-11T13:25:47;26.03;;;10.77;;
19869;SDS011;10097;50.862;4.696;2022-12-11T13:33:42;34.17;;;17.17;;
19869;SDS011;10097;50.862;4.696;2022-12-11T13:38:38;42.93;;;23.23;;
19869;SDS011;10097;50.862;4.696;2022-12-11T13:41:17;45.67;;;22.30;;
19869;SDS011;10097;50.862;4.696;2022-12-11T13:43:45;52.33;;;21.73;;
19869;SDS011;10097;50.862;4.696;2022-12-11T13:46:12;38.53;;;18.30;;
19869;SDS011;10097;50.862;4.696;2022-12-11T13:48:47;43.07;;;20.90;;
19869;SDS011;10097;50.862;4.696;2022-12-11T13:51:22;35.77;;;16.40;;
19869;SDS011;10097;50.862;4.696;2022-12-11T13:54:00;33.20;;;14.67;;
19869;SDS011;10097;50.862;4.696;2022-12-11T13:56:31;37.57;;;17.13;;
19869;SDS011;10097;50.862;4.696;2022-12-11T13:58:57;33.77;;;15.03;;
19869;SDS011;10097;50.862;4.696;2022-12-11T14:01:23;37.93;;;16.63;;
19869;SDS011;10097;50.862;4.696;2022-12-11T14:03:57;31.47;;;13.20;;
19869;SDS011;10097;50.862;4.696;2022-12-11T14:06:26;31.03;;;14.60;;
19869;SDS011;10097;50.862;4.696;2022-12-11T14:08:53;39.57;;;18.27;;
19869;SDS011;10097;50.862;4.696;2022-12-11T14:11:30;42.97;;;18.40;;
19869;SDS011;10097;50.862;4.696;2022-12-11T14:14:06;53.13;;;26.40;;
19869;SDS011;10097;50.862;4.696;2022-12-11T14:16:41;65.47;;;30.03;;
19869;SDS011;10097;50.862;4.696;2022-12-11T14:19:07;116.73;;;49.60;;
19869;SDS011;10097;50.862;4.696;2022-12-11T14:21:35;124.53;;;55.77;;
19869;SDS011;10097;50.862;4.696;2022-12-11T14:24:01;56.07;;;26.33;;
19869;SDS011;10097;50.862;4.696;2022-12-11T14:26:33;47.80;;;22.73;;
19869;SDS011;10097;50.862;4.696;2022-12-11T14:29:02;45.00;;;20.93;;
19869;SDS011;10097;50.862;4.696;2022-12-11T14:34:06;36.30;;;17.13;;
19869;SDS011;10097;50.862;4.696;2022-12-11T14:36:44;38.87;;;18.10;;
19869;SDS011;10097;50.862;4.696;2022-12-11T14:41:42;45.63;;;22.57;;
19869;SDS011;10097;50.862;4.696;2022-12-11T14:44:14;35.97;;;15.50;;
19869;SDS011;10097;50.862;4.696;2022-12-11T14:46:45;36.17;;;16.27;;
19869;SDS011;10097;50.862;4.696;2022-12-11T14:51:58;34.50;;;16.50;;
19869;SDS011;10097;50.862;4.696;2022-12-11T14:54:36;45.00;;;23.07;;
19869;SDS011;10097;50.862;4.696;2022-12-11T14:57:05;39.30;;;17.20;;
19869;SDS011;10097;50.862;4.696;2022-12-11T14:59:40;39.27;;;18.00;;
19869;SDS011;10097;50.862;4.696;2022-12-11T15:05:02;44.17;;;19.43;;
19869;SDS011;10097;50.862;4.696;2022-12-11T15:07:36;45.33;;;21.10;;
19869;SDS011;10097;50.862;4.696;2022-12-11T15:10:03;41.43;;;18.87;;
19869;SDS011;10097;50.862;4.696;2022-12-11T15:12:29;43.23;;;19.20;;
19869;SDS011;10097;50.862;4.696;2022-12-11T15:14:57;38.67;;;16.27;;
19869;SDS011;10097;50.862;4.696;2022-12-11T15:17:30;42.27;;;17.77;;
19869;SDS011;10097;50.862;4.696;2022-12-11T15:20:07;59.20;;;26.17;;
19869;SDS011;10097;50.862;4.696;2022-12-11T15:22:40;57.97;;;23.83;;
19869;SDS011;10097;50.862;4.696;2022-12-11T15:25:15;46.53;;;19.77;;
19869;SDS011;10097;50.862;4.696;2022-12-11T15:27:42;39.33;;;16.47;;
19869;SDS011;10097;50.862;4.696;2022-12-11T15:33:00;42.57;;;17.50;;
19869;SDS011;10097;50.862;4.696;2022-12-11T15:35:27;48.80;;;21.10;;
19869;SDS011;10097;50.862;4.696;2022-12-11T15:37:53;41.43;;;19.50;;
19869;SDS011;10097;50.862;4.696;2022-12-11T15:40:20;42.07;;;19.10;;
19869;SDS011;10097;50.862;4.696;2022-12-11T15:42:46;33.20;;;13.30;;
19869;SDS011;10097;50.862;4.696;2022-12-11T15:45:16;37.20;;;15.70;;
19869;SDS011;10097;50.862;4.696;2022-12-11T15:47:44;36.50;;;16.13;;
19869;SDS011;10097;50.862;4.696;2022-12-11T15:52:40;38.70;;;16.17;;
19869;SDS011;10097;50.862;4.696;2022-12-11T15:55:06;38.87;;;16.40;;
19869;SDS011;10097;50.862;4.696;2022-12-11T15:57:32;43.40;;;16.87;;
19869;SDS011;10097;50.862;4.696;2022-12-11T15:59:58;77.33;;;30.27;;
19869;SDS011;10097;50.862;4.696;2022-12-11T16:02:24;72.57;;;30.10;;
19869;SDS011;10097;50.862;4.696;2022-12-11T16:04:51;59.17;;;25.57;;
19869;SDS011;10097;50.862;4.696;2022-12-11T16:07:21;45.77;;;19.47;;
19869;SDS011;10097;50.862;4.696;2022-12-11T16:09:49;39.93;;;17.87;;
19869;SDS011;10097;50.862;4.696;2022-12-11T16:12:15;44.93;;;20.20;;
19869;SDS011;10097;50.862;4.696;2022-12-11T16:14:41;48.77;;;21.63;;
19869;SDS011;10097;50.862;4.696;2022-12-11T16:17:08;42.00;;;17.07;;
19869;SDS011;10097;50.862;4.696;2022-12-11T16:19:36;39.77;;;15.40;;